Aviation Digital Data Service (ADDS)

Output produced by METARs form (2334 UTC 23 May 2022)
found at http://www.aviationweather.gov/metar/data/
 
OMAA 232300Z 34006KT 310V010 CAVOK 30/23 Q0999 NOSIG
TAF OMAA 232300Z 2400/2506 VRB02KT 8000 NSC 
     PROB30 2401/2404 4000 HZ 
     BECMG 2407/2409 32015KT 4000 DU 
     PROB40 
     TEMPO 2410/2506 1500 
     BECMG 2418/2420 24006KT
       
OMAL 232300Z 03004KT 8000 NSC 33/08 Q1001 NOSIG
TAF OMAL 232300Z 2400/2506 08005KT 8000 NSC 
     BECMG 2401/2403 16010KT 
     BECMG 2408/2410 32012KT 
     PROB40 
     TEMPO 2412/2506 2000 DU 
     BECMG 2418/2420 06005KT
       
OMAD 232300Z 35005KT CAVOK 30/24 Q0999 NOSIG
TAF OMAD 232300Z 2400/2506 VRB02KT 8000 NSC 
     PROB30 2401/2404 4000 HZ 
     BECMG 2407/2409 32014KT 4000 DU 
     PROB40 
     TEMPO 2410/2506 1500 
     BECMG 2418/2420 24005KT
       
OMDB 232300Z VRB02KT CAVOK 32/23 Q0999 NOSIG
TAF OMDB 232300Z 2400/2506 09005KT 8000 NSC 
     PROB30 2401/2404 4000 HZ 
     BECMG 2403/2405 16010KT 
     BECMG 2407/2409 30013KT 
     PROB30 2410/2506 3000 DU 
     BECMG 2416/2418 19005KT
       
OMFJ 232300Z 18003KT 4000 DU NSC 32/10 Q0998 A2947
TAF OMFJ 232300Z 2400/2506 29006KT 5000 DU NSC 
     BECMG 2402/2404 09007KT 
     BECMG 2414/2416 29012KT 
     PROB30 2418/2502 30016G26KT 3000
       
OMRK 232300Z 21002KT 6000 NSC 25/21 Q0999 Q2952
TAF OMRK 232300Z 2400/2506 VRB02KT 7000 NSC 
     PROB30 2400/2404 4000 HZ 
     BECMG 2407/2409 33013KT 
     PROB30 2412/2506 3000 DU 
     BECMG 2415/2417 VRB02KT
       
OMSJ 232300Z 06002KT 8000 NSC 28/23 Q0999 NOSIG
TAF OMSJ 232300Z 2400/2506 09005KT 8000 NSC 
     PROB30 2400/2404 4000 HZ 
     BECMG 2403/2405 16010KT 
     BECMG 2407/2409 30013KT 
     PROB30 2411/2506 3000 DU 
     BECMG 2415/2417 18005KT